createdAt,value
2019-04-06T00:00:50.187Z,6.10
2019-04-06T00:03:29.077Z,6.50
2019-04-06T00:06:07.573Z,6.28
2019-04-06T00:08:45.108Z,6.33
2019-04-06T00:11:22.668Z,5.92
2019-04-06T00:14:00.390Z,6.20
2019-04-06T00:16:38.143Z,6.30
2019-04-06T00:19:15.807Z,6.37
2019-04-06T00:21:53.374Z,5.75
2019-04-06T00:24:31.343Z,5.80
2019-04-06T00:27:08.801Z,5.83
2019-04-06T00:29:46.715Z,5.70
2019-04-06T00:32:30.178Z,5.85
2019-04-06T00:35:07.911Z,5.67
2019-04-06T00:37:45.462Z,5.70
2019-04-06T00:40:20.515Z,5.47
2019-04-06T00:42:58.050Z,5.12
2019-04-06T00:45:36.510Z,5.67
2019-04-06T00:48:15.077Z,5.67
2019-04-06T00:50:52.732Z,5.22
2019-04-06T00:53:32.594Z,5.30
2019-04-06T00:56:10.894Z,5.70
2019-04-06T00:58:46.210Z,5.12
2019-04-06T01:01:23.952Z,5.37
2019-04-06T01:04:01.591Z,5.30
2019-04-06T01:06:39.287Z,5.10
2019-04-06T01:09:17.142Z,5.12
2019-04-06T01:11:53.423Z,4.67
2019-04-06T01:14:28.357Z,4.97
2019-04-06T01:17:06.097Z,5.20
2019-04-06T01:19:43.699Z,5.08
2019-04-06T01:22:22.383Z,5.00
2019-04-06T01:25:00.179Z,5.08
2019-04-06T01:27:35.471Z,4.97
2019-04-06T01:30:14.150Z,5.17
2019-04-06T01:32:52.087Z,5.35
2019-04-06T01:35:32.379Z,5.30
2019-04-06T01:38:10.157Z,5.22
2019-04-06T01:40:47.735Z,4.80
2019-04-06T01:43:26.124Z,5.30
2019-04-06T01:46:04.174Z,5.05
2019-04-06T01:48:41.844Z,4.95
2019-04-06T01:51:19.580Z,5.00
2019-04-06T01:53:57.389Z,5.33
2019-04-06T01:56:32.518Z,4.70
2019-04-06T01:59:11.631Z,4.60
2019-04-06T02:02:09.471Z,4.78
2019-04-06T02:04:47.085Z,5.45
2019-04-06T02:07:24.698Z,4.50
2019-04-06T02:10:02.432Z,4.85
2019-04-06T02:12:37.722Z,4.72
2019-04-06T02:15:12.875Z,4.70
2019-04-06T02:17:45.177Z,3.80
2019-04-06T02:22:54.539Z,4.55
2019-04-06T02:25:32.186Z,4.08
2019-04-06T02:28:09.892Z,4.17
2019-04-06T02:31:03.551Z,4.12
2019-04-06T02:34:03.164Z,3.65
2019-04-06T02:37:16.274Z,3.33
2019-04-06T02:40:07.729Z,3.40
2019-04-06T02:42:48.660Z,3.80
2019-04-06T02:45:26.903Z,3.72
2019-04-06T02:48:05.036Z,3.60
2019-04-06T02:50:42.894Z,3.70
2019-04-06T02:53:20.768Z,3.70
2019-04-06T02:56:06.100Z,3.30
2019-04-06T02:58:43.927Z,3.70
2019-04-06T03:01:21.974Z,3.30
2019-04-06T03:03:59.667Z,3.50
2019-04-06T03:06:37.395Z,3.55
2019-04-06T03:09:15.212Z,2.92
2019-04-06T03:11:50.570Z,3.08
2019-04-06T03:14:25.465Z,3.40
2019-04-06T03:17:05.159Z,3.50
2019-04-06T03:19:43.024Z,4.47
2019-04-06T03:22:20.971Z,3.50
2019-04-06T03:24:58.577Z,2.92
2019-04-06T03:27:36.131Z,2.98
2019-04-06T03:30:15.258Z,2.95
2019-04-06T03:32:53.163Z,2.98
2019-04-06T03:35:31.012Z,2.80
2019-04-06T03:38:09.001Z,2.90
2019-04-06T03:40:46.845Z,2.90
2019-04-06T03:43:24.530Z,3.60
2019-04-06T03:46:02.406Z,2.75
2019-04-06T03:48:40.186Z,2.42
2019-04-06T03:51:17.640Z,2.50
2019-04-06T03:53:55.486Z,2.50
2019-04-06T03:56:33.342Z,2.72
2019-04-06T03:59:10.944Z,2.47
2019-04-06T04:01:46.066Z,2.60
2019-04-06T04:04:21.639Z,2.10
2019-04-06T04:06:59.175Z,2.60
2019-04-06T04:09:37.336Z,5.85
2019-04-06T04:12:14.997Z,5.45
2019-04-06T04:14:50.498Z,5.62
2019-04-06T04:17:29.367Z,5.83
2019-04-06T04:20:07.184Z,5.15
2019-04-06T04:22:45.393Z,4.47
2019-04-06T04:25:23.194Z,4.83
2019-04-06T04:28:00.832Z,4.42
2019-04-06T04:30:39.076Z,5.45
2019-04-06T04:33:16.721Z,4.72
2019-04-06T04:35:54.316Z,5.58
2019-04-06T04:38:31.913Z,5.75
2019-04-06T04:41:09.996Z,5.65
2019-04-06T04:43:45.237Z,6.05
2019-04-06T04:46:23.310Z,5.10
2019-04-06T04:49:00.964Z,5.50
2019-04-06T04:51:38.898Z,4.75
2019-04-06T04:54:16.579Z,5.70
2019-04-06T04:56:54.357Z,5.05
2019-04-06T04:59:32.103Z,5.28
2019-04-06T05:02:11.260Z,5.72
2019-04-06T05:04:48.971Z,6.10
2019-04-06T05:07:26.684Z,6.30
2019-04-06T05:10:04.351Z,7.17
2019-04-06T05:12:42.188Z,6.87
2019-04-06T05:15:24.380Z,8.15
2019-04-06T05:18:02.430Z,8.40
2019-04-06T05:20:40.151Z,7.47
2019-04-06T05:23:18.164Z,5.72
2019-04-06T05:25:56.155Z,6.45
2019-04-06T05:28:33.977Z,6.30
2019-04-06T05:31:09.302Z,6.10
2019-04-06T05:33:47.445Z,13.60
2019-04-06T05:36:25.122Z,8.38
2019-04-06T05:39:03.068Z,12.80
2019-04-06T05:41:41.652Z,13.15
2019-04-06T05:44:19.607Z,6.55
2019-04-06T05:46:57.208Z,9.90
2019-04-06T05:49:35.448Z,6.50
2019-04-06T05:52:13.139Z,9.10
2019-04-06T05:54:48.768Z,9.80
2019-04-06T05:57:26.852Z,11.33
2019-04-06T06:00:04.552Z,7.42
2019-04-06T06:02:42.435Z,7.35
2019-04-06T06:05:20.268Z,7.72
2019-04-06T06:08:00.953Z,7.42
2019-04-06T06:10:38.775Z,7.83
2019-04-06T06:13:16.421Z,6.50
2019-04-06T06:15:54.366Z,7.03
2019-04-06T06:18:33.379Z,7.20
2019-04-06T06:21:11.213Z,8.60
2019-04-06T06:23:49.157Z,7.40
2019-04-06T06:26:27.292Z,9.13
2019-04-06T06:29:04.986Z,6.70
2019-04-06T06:31:42.839Z,7.78
2019-04-06T06:34:20.479Z,7.25
2019-04-06T06:36:58.124Z,6.72
2019-04-06T06:39:36.112Z,6.72
2019-04-06T06:42:14.075Z,6.92
2019-04-06T06:44:51.697Z,6.10
2019-04-06T06:47:29.548Z,7.42
2019-04-06T06:50:07.989Z,6.03
2019-04-06T06:52:45.661Z,6.50
2019-04-06T06:55:23.369Z,7.40
2019-04-06T06:58:01.262Z,6.20
2019-04-06T07:00:39.024Z,6.37
2019-04-06T07:03:20.291Z,6.17
2019-04-06T07:05:57.990Z,6.28
2019-04-06T07:08:35.848Z,6.30
2019-04-06T07:11:13.473Z,6.42
2019-04-06T07:13:51.324Z,5.78
2019-04-06T07:16:28.964Z,6.90
2019-04-06T07:19:06.823Z,6.15
2019-04-06T07:21:44.661Z,6.65
2019-04-06T07:24:22.537Z,6.15
2019-04-06T07:27:00.201Z,6.58
2019-04-06T07:29:37.932Z,6.00
2019-04-06T07:32:16.019Z,6.03
2019-04-06T07:34:53.879Z,6.40
2019-04-06T07:37:31.495Z,6.58
2019-04-06T07:40:10.912Z,6.55
2019-04-06T07:42:48.983Z,6.65
2019-04-06T07:45:26.903Z,6.55
2019-04-06T07:48:04.715Z,6.37
2019-04-06T07:50:42.626Z,6.47
2019-04-06T07:53:21.213Z,6.87
2019-04-06T07:55:57.106Z,8.48
2019-04-06T07:58:34.832Z,6.45
2019-04-06T08:01:13.113Z,5.87
2019-04-06T08:03:50.659Z,6.22
2019-04-06T08:06:28.276Z,6.53
2019-04-06T08:09:07.345Z,7.50
2019-04-06T08:11:46.453Z,6.30
2019-04-06T08:14:24.182Z,7.47
2019-04-06T08:17:01.945Z,7.55
2019-04-06T08:19:39.530Z,6.65
2019-04-06T08:22:17.104Z,6.30
2019-04-06T08:24:54.796Z,7.03
2019-04-06T08:27:32.652Z,5.97
2019-04-06T08:30:12.269Z,5.90
2019-04-06T08:32:50.125Z,6.37
2019-04-06T08:35:28.391Z,6.62
2019-04-06T08:38:06.744Z,11.53
2019-04-06T08:40:44.826Z,6.60
2019-04-06T08:43:22.552Z,8.20
2019-04-06T08:46:00.187Z,6.83
2019-04-06T08:48:38.016Z,6.10
2019-04-06T08:51:15.711Z,8.50
2019-04-06T08:53:53.703Z,6.55
2019-04-06T08:56:32.805Z,7.05
2019-04-06T08:59:13.063Z,6.05
2019-04-06T09:01:50.020Z,5.67
2019-04-06T09:04:28.113Z,7.40
2019-04-06T09:07:05.726Z,5.83
2019-04-06T09:09:44.255Z,6.78
2019-04-06T09:12:21.789Z,9.05
2019-04-06T09:14:59.616Z,6.67
2019-04-06T09:17:37.239Z,13.22
2019-04-06T09:20:15.659Z,7.03
2019-04-06T09:22:53.319Z,5.80
2019-04-06T09:25:32.533Z,5.87
2019-04-06T09:28:10.181Z,5.47
2019-04-06T09:30:47.987Z,6.20
2019-04-06T09:33:25.660Z,9.93
2019-04-06T09:36:03.699Z,8.95
2019-04-06T09:38:41.325Z,11.35
2019-04-06T09:41:19.563Z,9.28
2019-04-06T09:43:57.251Z,7.58
2019-04-06T09:46:43.615Z,11.90
2019-04-06T09:49:30.712Z,10.68
2019-04-06T09:52:18.070Z,9.50
2019-04-06T09:55:22.008Z,7.40
2019-04-06T09:58:23.989Z,6.42
2019-04-06T10:01:08.231Z,7.10
2019-04-06T10:04:04.306Z,6.45
2019-04-06T10:06:57.872Z,6.08
2019-04-06T10:09:53.079Z,6.05
2019-04-06T10:12:48.417Z,6.22
2019-04-06T10:15:34.229Z,6.20
2019-04-06T10:18:47.405Z,6.45
2019-04-06T10:21:38.612Z,6.08
2019-04-06T10:24:36.013Z,6.47
2019-04-06T10:27:32.220Z,6.20
2019-04-06T10:30:21.211Z,6.00
2019-04-06T10:33:09.039Z,5.78
2019-04-06T10:36:02.512Z,5.67
2019-04-06T10:38:53.341Z,5.92
2019-04-06T10:41:46.656Z,6.17
2019-04-06T10:44:38.116Z,6.42
2019-04-06T10:47:24.041Z,5.70
2019-04-06T10:50:16.991Z,6.25
2019-04-06T10:53:26.096Z,5.97
2019-04-06T10:56:21.540Z,6.53
2019-04-06T10:59:15.029Z,6.35
2019-04-06T11:02:09.440Z,6.08
2019-04-06T11:05:01.775Z,5.97
2019-04-06T11:07:56.940Z,6.22
2019-04-06T11:11:07.795Z,6.83
2019-04-06T11:14:07.292Z,6.22
2019-04-06T11:17:08.122Z,5.90
2019-04-06T11:20:00.383Z,6.17
2019-04-06T11:22:53.999Z,6.05
2019-04-06T11:25:49.198Z,5.80
2019-04-06T11:28:45.362Z,6.17
2019-04-06T11:31:42.385Z,6.42
2019-04-06T11:34:44.356Z,6.22
2019-04-06T11:37:37.895Z,6.60
2019-04-06T11:40:47.948Z,6.53
2019-04-06T11:43:37.974Z,6.75
2019-04-06T11:46:34.599Z,6.50
2019-04-06T11:49:20.377Z,6.25
2019-04-06T11:52:30.759Z,6.42
2019-04-06T11:55:20.602Z,6.33
2019-04-06T11:58:19.942Z,6.72
2019-04-06T12:01:15.486Z,7.65
2019-04-06T12:04:08.728Z,6.60
2019-04-06T12:06:52.801Z,6.90
2019-04-06T12:09:53.832Z,7.53
2019-04-06T12:12:43.094Z,8.30
2019-04-06T12:15:39.423Z,8.10
2019-04-06T12:18:26.271Z,7.05
2019-04-06T12:21:30.472Z,6.90
2019-04-06T12:24:20.308Z,7.25
2019-04-06T12:27:14.153Z,7.70
2019-04-06T12:30:14.173Z,7.30
2019-04-06T12:33:12.054Z,8.23
2019-04-06T12:36:05.454Z,7.85
2019-04-06T12:38:58.290Z,8.85
2019-04-06T12:42:08.631Z,9.15
2019-04-06T12:45:16.160Z,13.50
2019-04-06T12:48:11.017Z,16.37
2019-04-06T12:50:59.961Z,20.40
2019-04-06T12:54:04.431Z,18.50
2019-04-06T12:57:00.858Z,9.53
2019-04-06T12:59:49.202Z,10.50
2019-04-06T13:02:50.860Z,10.48
2019-04-06T13:05:48.936Z,8.40
2019-04-06T13:08:35.216Z,9.55
2019-04-06T13:11:30.373Z,8.40
2019-04-06T13:14:20.393Z,8.90
2019-04-06T13:17:14.078Z,7.80
2019-04-06T13:20:10.752Z,9.13
2019-04-06T13:23:15.185Z,7.55
2019-04-06T13:26:16.804Z,7.87
2019-04-06T13:29:11.201Z,7.40
2019-04-06T13:31:56.594Z,6.58
2019-04-06T13:34:52.674Z,6.45
2019-04-06T13:37:45.917Z,5.95
2019-04-06T13:40:50.303Z,6.25
2019-04-06T13:43:51.609Z,5.67
2019-04-06T13:46:58.374Z,5.00
2019-04-06T13:49:42.299Z,4.83
2019-04-06T13:52:43.771Z,4.90
2019-04-06T13:55:49.903Z,6.40
2019-04-06T13:58:40.973Z,5.90
2019-04-06T14:01:34.372Z,5.45
2019-04-06T14:04:28.095Z,6.35
2019-04-06T14:07:22.561Z,6.55
2019-04-06T14:10:17.604Z,6.33
2019-04-06T14:13:21.424Z,6.08
2019-04-06T14:16:06.096Z,5.92
2019-04-06T14:19:10.449Z,6.72
2019-04-06T14:22:00.315Z,6.60
2019-04-06T14:24:55.378Z,7.12
2019-04-06T14:27:50.670Z,7.08
2019-04-06T14:30:48.661Z,7.17
2019-04-06T14:33:40.266Z,23.67
2019-04-06T14:36:26.842Z,6.95
2019-04-06T14:39:22.863Z,7.90
2019-04-06T14:42:20.634Z,7.10
2019-04-06T14:45:31.285Z,7.58
2019-04-06T14:48:32.409Z,7.78
2019-04-06T14:51:23.203Z,7.83
2019-04-06T14:54:18.077Z,6.75
2019-04-06T14:57:10.574Z,7.58
2019-04-06T15:00:07.966Z,7.90
2019-04-06T15:02:59.535Z,7.00
2019-04-06T15:06:03.698Z,7.85
2019-04-06T15:08:51.338Z,7.75
2019-04-06T15:11:52.715Z,7.00
2019-04-06T15:14:39.210Z,7.67
2019-04-06T15:17:35.040Z,7.53
2019-04-06T15:20:36.437Z,7.08
2019-04-06T15:23:40.226Z,7.72
2019-04-06T15:26:34.521Z,7.00
2019-04-06T15:29:32.600Z,6.70
2019-04-06T15:32:22.048Z,6.92
2019-04-06T15:35:26.413Z,6.30
2019-04-06T15:38:20.217Z,7.40
2019-04-06T15:41:09.150Z,6.87
2019-04-06T15:43:54.664Z,6.33
2019-04-06T15:46:49.687Z,6.97
2019-04-06T15:49:32.671Z,7.08
2019-04-06T15:52:26.156Z,6.92
2019-04-06T15:55:07.412Z,7.22
2019-04-06T15:58:05.714Z,6.67
2019-04-06T16:00:56.663Z,6.40
2019-04-06T16:03:43.970Z,6.90
2019-04-06T16:06:38.074Z,6.37
2019-04-06T16:09:31.298Z,7.12
2019-04-06T16:12:28.316Z,6.58
2019-04-06T16:15:22.364Z,6.72
2019-04-06T16:18:32.701Z,6.87
2019-04-06T16:21:20.917Z,6.53
2019-04-06T16:24:31.316Z,7.08
2019-04-06T16:27:25.651Z,7.03
2019-04-06T16:30:29.081Z,5.97
2019-04-06T16:33:12.776Z,6.12
2019-04-06T16:36:09.265Z,6.53
2019-04-06T16:39:03.753Z,6.30
2019-04-06T16:41:58.722Z,5.97
2019-04-06T16:44:42.017Z,6.03
2019-04-06T16:47:46.060Z,6.50
2019-04-06T16:50:39.888Z,6.83
2019-04-06T16:53:41.338Z,6.78
2019-04-06T16:56:30.674Z,6.75
2019-04-06T16:59:34.897Z,6.50
2019-04-06T17:02:44.913Z,6.30
2019-04-06T17:05:37.791Z,6.28
2019-04-06T17:08:32.710Z,6.20
2019-04-06T17:11:21.882Z,6.30
2019-04-06T17:14:15.276Z,6.92
2019-04-06T17:17:16.820Z,6.80
2019-04-06T17:20:17.909Z,5.75
2019-04-06T17:23:06.129Z,6.58
2019-04-06T17:26:01.089Z,6.28
2019-04-06T17:28:48.555Z,6.25
2019-04-06T17:31:36.607Z,5.83
2019-04-06T17:34:21.118Z,7.05
2019-04-06T17:37:22.131Z,6.05
2019-04-06T17:40:15.296Z,6.62
2019-04-06T17:43:08.592Z,6.40
2019-04-06T17:45:56.531Z,6.78
2019-04-06T17:48:57.499Z,6.40
2019-04-06T17:51:46.393Z,6.42
2019-04-06T17:54:44.878Z,6.15
2019-04-06T17:57:55.154Z,6.45
2019-04-06T18:04:17.312Z,6.42
2019-04-06T18:07:31.098Z,6.60
2019-04-06T18:10:19.957Z,6.85
2019-04-06T18:13:13.645Z,6.35
2019-04-06T18:15:51.313Z,6.15
2019-04-06T18:18:29.151Z,7.00
2019-04-06T18:21:06.920Z,6.45
2019-04-06T18:23:45.329Z,6.53
2019-04-06T18:26:23.094Z,7.12
2019-04-06T18:29:00.688Z,7.33
2019-04-06T18:32:02.892Z,6.65
2019-04-06T18:34:41.379Z,6.95
2019-04-06T18:37:40.152Z,6.60
2019-04-06T18:40:28.096Z,6.70
2019-04-06T18:43:06.400Z,5.92
2019-04-06T18:45:44.028Z,6.50
2019-04-06T18:48:21.688Z,7.25
2019-04-06T18:50:59.286Z,6.55
2019-04-06T18:53:34.374Z,6.35
2019-04-06T18:56:12.099Z,6.40
2019-04-06T18:58:50.314Z,5.95
2019-04-06T19:01:27.940Z,6.33
2019-04-06T19:04:05.585Z,6.53
2019-04-06T19:06:44.351Z,6.92
2019-04-06T19:09:24.023Z,5.83
2019-04-06T19:12:00.920Z,5.97
2019-04-06T19:14:38.687Z,6.12
2019-04-06T19:17:16.723Z,6.00
2019-04-06T19:19:54.456Z,5.90
2019-04-06T19:22:29.615Z,5.12
2019-04-06T19:25:07.166Z,5.58
2019-04-06T19:27:45.303Z,6.45
2019-04-06T19:30:25.063Z,5.25
2019-04-06T19:33:02.690Z,6.37
2019-04-06T19:35:38.437Z,5.53
2019-04-06T19:38:16.749Z,5.65
2019-04-06T19:40:51.911Z,6.00
2019-04-06T19:43:29.613Z,5.92
2019-04-06T19:46:07.632Z,5.78
2019-04-06T19:48:45.284Z,6.00
2019-04-06T19:51:23.216Z,5.47
2019-04-06T19:54:00.761Z,5.75
2019-04-06T19:56:35.861Z,5.92
2019-04-06T19:59:13.768Z,6.17
2019-04-06T20:01:51.871Z,5.67
2019-04-06T20:04:29.737Z,6.30
2019-04-06T20:07:07.405Z,6.35
2019-04-06T20:09:45.009Z,5.92
2019-04-06T20:12:25.603Z,5.62
2019-04-06T20:15:03.251Z,5.78
2019-04-06T20:17:40.970Z,5.72
2019-04-06T20:20:18.840Z,5.30
2019-04-06T20:22:54.111Z,6.10
2019-04-06T20:25:31.884Z,6.35
2019-04-06T20:28:07.059Z,6.62
2019-04-06T20:30:44.701Z,5.67
2019-04-06T20:33:23.084Z,6.25
2019-04-06T20:36:00.869Z,5.97
2019-04-06T20:38:39.025Z,6.30
2019-04-06T20:41:16.708Z,6.50
2019-04-06T20:43:55.009Z,6.12
2019-04-06T20:46:34.270Z,6.60
2019-04-06T20:49:11.959Z,6.65
2019-04-06T20:51:49.682Z,7.12
2019-04-06T20:54:27.383Z,7.28
2019-04-06T20:57:05.379Z,6.83
2019-04-06T20:59:43.063Z,7.30
2019-04-06T21:02:20.650Z,6.83
2019-04-06T21:04:58.487Z,7.95
2019-04-06T21:07:36.101Z,6.70
2019-04-06T21:10:13.965Z,6.37
2019-04-06T21:12:52.867Z,7.72
2019-04-06T21:15:30.743Z,7.35
2019-04-06T21:18:09.317Z,6.65
2019-04-06T21:20:47.324Z,6.65
2019-04-06T21:23:26.085Z,7.55
2019-04-06T21:26:03.851Z,7.22
2019-04-06T21:28:42.092Z,7.00
2019-04-06T21:31:19.855Z,7.05
2019-04-06T21:33:57.366Z,7.62
2019-04-06T21:36:35.116Z,8.10
2019-04-06T21:39:13.588Z,6.95
2019-04-06T21:41:51.473Z,7.50
2019-04-06T21:44:29.822Z,7.10
2019-04-06T21:47:08.059Z,6.72
2019-04-06T21:49:45.999Z,7.00
2019-04-06T21:52:23.779Z,6.92
2019-04-06T21:55:01.564Z,6.40
2019-04-06T21:57:40.348Z,6.45
2019-04-06T22:00:24.078Z,6.95
2019-04-06T22:03:01.942Z,7.33
2019-04-06T22:05:39.861Z,6.53
2019-04-06T22:08:17.580Z,7.10
2019-04-06T22:10:55.344Z,6.62
2019-04-06T22:13:33.012Z,6.70
2019-04-06T22:16:11.492Z,6.90
2019-04-06T22:18:49.703Z,6.42
2019-04-06T22:21:27.403Z,6.22
2019-04-06T22:24:05.544Z,5.72
2019-04-06T22:26:43.754Z,6.25
2019-04-06T22:29:22.266Z,6.10
2019-04-06T22:31:57.523Z,5.62
2019-04-06T22:34:39.954Z,5.83
2019-04-06T22:37:13.990Z,5.67
2019-04-06T22:39:52.540Z,5.90
2019-04-06T22:42:30.481Z,5.40
2019-04-06T22:45:05.677Z,5.35
2019-04-06T22:47:41.434Z,5.40
2019-04-06T22:50:19.892Z,5.50
2019-04-06T22:52:58.334Z,5.10
2019-04-06T22:55:36.543Z,5.55
2019-04-06T22:58:15.295Z,5.10
2019-04-06T23:01:02.850Z,5.55
2019-04-06T23:04:16.009Z,5.55
2019-04-06T23:07:00.683Z,5.37
2019-04-06T23:09:38.482Z,5.80
2019-04-06T23:12:16.735Z,5.47
2019-04-06T23:14:55.472Z,5.60
2019-04-06T23:17:33.183Z,4.97
2019-04-06T23:20:11.210Z,5.30
2019-04-06T23:22:49.025Z,5.37
2019-04-06T23:25:24.397Z,5.30
2019-04-06T23:28:01.993Z,5.55
2019-04-06T23:30:37.551Z,5.30
2019-04-06T23:33:15.109Z,5.20
2019-04-06T23:35:54.455Z,5.25
2019-04-06T23:38:31.537Z,5.47
2019-04-06T23:41:09.391Z,5.25
2019-04-06T23:43:47.151Z,5.03
2019-04-06T23:46:25.733Z,5.08
2019-04-06T23:49:03.384Z,5.20
2019-04-06T23:51:41.473Z,4.60
2019-04-06T23:54:19.251Z,5.87
2019-04-06T23:56:56.932Z,5.12
2019-04-06T23:59:35.127Z,4.80
